Weather observations for the past three days for
Grangeville - Idaho County Airport
Metric (Imperial)
Date Time (pdt) Wind (kph) Vis. (km) Weather Sky Cond. Temperature (ºC) Relative Humidity Wind Chill (°C) Heat Index (°C) Pressure Precipitation (cm)
Air Dwpt 6 hour altimeter (cm) sea level (mb) 1 hr 3 hr 6 hr
Max. Min.
31 03:55 Calm 16.09 Fair CLR 7 -1 57% 76.28 0.0
31 03:35 Calm 16.09 Fair CLR 6 -1 61% 76.28 0.0
31 03:15 Calm 16.09 Fair CLR 7 0 61% 76.28 0.0
31 02:55 Calm 16.09 Fair CLR 8 0 57% 76.3 0.0
31 02:35 Calm 16.09 Fair CLR 8 0 57% 76.3 0.0
31 02:15 Calm 16.09 Fair CLR 7 -1 57% 76.3 0.0
31 01:50 Calm 16.09 Fair CLR 7 -2 53% 76.3 0.0
31 01:35 Calm 16.09 Fair CLR 7 -1 57% 76.3 0.0
31 01:15 S 7 16.09 Fair CLR 8 0 57% 7 76.3 0.0
31 00:55 Calm 16.09 Fair CLR 8 0 57% 76.3 0.0
31 00:35 Calm 16.09 Fair CLR 8 0 57% 76.3 0.0
31 00:15 Calm 16.09 Fair CLR 8 -1 53% 76.3 0.0
30 23:55 Calm 16.09 Fair CLR 8 -1 53% 76.3 0.0
30 23:30 Calm 16.09 Fair CLR 9 0 54% 76.3 0.0
30 23:20 SW 6 16.09 Fair CLR 10 0 50% 76.33 0.0
30 22:55 Calm 16.09 Fair CLR 8 -1 53% 76.33 0.0
30 22:35 Calm 16.09 Fair CLR 10 1 54% 76.35 0.0
30 22:15 Calm 16.09 Fair CLR 11 0 47% 76.35 0.0
30 21:50 Calm 16.09 Fair CLR 11 0 47% 76.35 0.0
30 21:35 S 6 16.09 Fair CLR 12 0 44% 76.35 0.0
30 21:15 SE 6 16.09 Fair CLR 12 0 44% 76.35 0.0
30 20:55 Calm 16.09 Fair CLR 13 0 41% 76.33 0.0
30 20:35 Calm 16.09 Fair CLR 12 0 44% 76.33 0.0
30 20:15 Calm 16.09 Fair CLR 14 0 39% 76.33 0.0
30 19:55 Calm 16.09 Fair CLR 15 0 36% 76.3 0.0
30 19:35 N 7 16.09 Fair CLR 15 0 36% 76.28 0.0
30 19:15 N 9 16.09 Fair CLR 16 0 34% 76.28 0.0
30 18:55 NE 9 16.09 Fair CLR 18 1 32% 76.28 0.0
30 18:35 NE 13 16.09 Fair CLR 19 1 30% 76.28 0.0
30 18:15 NE 13 16.09 Fair CLR 20 1 28% 76.28 0.0
30 17:55 NE 13 16.09 Fair CLR 20 1 28% 76.28 0.0
30 17:40 NE 19 16.09 Fair CLR 20 1 28% 76.28 0.0
30 17:15 NE 17 G 31 16.09 Fair CLR 21 1 27% 76.28 0.0
30 16:55 NE 20 16.09 Fair CLR 21 1 27% 76.28 0.0
30 16:35 NE 20 16.09 Fair CLR 21 0 25% 76.28 0.0
30 16:15 NW 13 16.09 Fair CLR 22 -2 20% 76.3 0.0
30 15:55 N 9 G 15 16.09 Fair CLR 22 -2 20% 76.3 0.0
30 15:35 NW 19 16.09 Fair CLR 22 -2 20% 76.3 0.0
30 15:15 NW 13 16.09 Fair CLR 22 -3 19% 76.33 0.0
30 14:55 NW 13 16.09 Fair CLR 21 -3 20% 76.33 0.0
30 14:35 SW 7 16.09 Fair CLR 22 -3 19% 76.35 0.0
30 14:15 W 13 G 26 16.09 Fair CLR 21 -2 21% 76.38 0.0
30 13:55 SW 11 16.09 Fair CLR 21 -2 21% 76.38 0.0
30 13:35 NW 7 16.09 Fair CLR 20 0 26% 76.38 0.0
30 13:15 S 6 16.09 Fair CLR 20 0 26% 76.38 0.0
30 12:55 NW 6 16.09 Fair CLR 20 0 26% 76.4 0.0
30 12:35 NW 19 G 26 16.09 Fair CLR 20 0 26% 76.4 0.0
30 12:15 Calm 16.09 Fair CLR 19 0 28% 76.4 0.0
30 11:55 SW 13 16.09 Fair CLR 18 -1 28% 76.4 0.0
30 11:35 W 11 16.09 Fair CLR 18 -1 28% 76.43 0.0
30 11:15 SW 11 16.09 Fair CLR 18 0 30% 76.43 0.0
30 10:55 SW 6 16.09 Fair CLR 17 1 34% 76.43 0.0
30 10:35 W 9 16.09 Fair CLR 17 1 34% 76.43 0.0
30 10:15 Calm 16.09 Fair CLR 16 1 36% 76.43 0.0
30 09:55 Calm 16.09 Fair CLR 16 2 39% 76.45 0.0
30 09:35 NW 7 16.09 Fair CLR 15 2 42% 76.43 0.0
30 09:15 W 9 16.09 Fair CLR 15 2 42% 76.45 0.0
30 08:55 NW 6 16.09 Fair CLR 15 2 42% 76.45 0.0
30 08:35 W 7 16.09 Fair CLR 13 2 47% 76.45 0.0
30 08:15 Calm 16.09 Fair CLR 12 1 47% 76.45 0.0
30 08:00 Calm 16.09 Fair CLR 12 1 47% 76.48 0.0
30 07:35 Calm 16.09 Fair CLR 11 1 50% 76.45 0.0
30 07:15 Calm 16.09 Partly Cloudy SCT050 SCT060 9 0 54% 76.45 0.0
30 06:55 Calm 16.09 Partly Cloudy SCT060 8 0 57% 76.43 0.0
30 06:35 Calm 16.09 Partly Cloudy SCT060 7 0 61% 76.43 0.0
30 06:15 Calm 16.09 Partly Cloudy SCT055 6 0 66% 76.43 0.0
30 05:55 Calm 16.09 Mostly Cloudy SCT055 BKN065 7 -1 57% 76.4 0.0
30 05:35 Calm 16.09 Partly Cloudy SCT055 7 0 61% 76.38 0.0
30 05:15 S 6 16.09 Partly Cloudy SCT070 5 -1 66% 76.35 0.0
30 04:55 SW 9 16.09 Partly Cloudy SCT070 6 -1 61% 4 76.35 0.0
30 04:35 S 7 16.09 Fair CLR 5 -2 61% 4 76.35 0.0
30 04:15 S 6 16.09 Fair CLR 5 -1 66% 76.35 0.0
30 03:55 S 6 16.09 Fair CLR 5 -1 66% 76.35 0.0
30 03:35 S 7 16.09 Fair CLR 6 -1 61% 5 76.35 0.0
30 03:15 S 6 16.09 Fair CLR 6 -2 57% 76.33 0.0
30 02:55 Calm 16.09 Fair CLR 5 -2 61% 76.33 0.0
30 02:35 Calm 16.09 Fair CLR 6 -2 57% 76.3 0.0
30 02:15 Calm 16.09 Fair CLR 7 -1 57% 76.3 0.0
30 01:55 Calm 16.09 Fair CLR 7 -1 57% 76.33 0.0
30 01:35 Calm 16.09 Fair CLR 7 -1 57% 76.33 0.0
30 01:15 Calm 16.09 Fair CLR 8 -1 53% 76.33 0.0
30 00:55 SE 9 16.09 Fair CLR 8 -2 50% 7 76.33 0.0
30 00:15 SE 7 16.09 Partly Cloudy SCT080 8 -2 50% 7 76.3 0.0
29 23:55 Calm 16.09 Mostly Cloudy BKN080 9 -2 46% 76.3 0.0
29 23:35 Calm 16.09 Partly Cloudy SCT080 10 -2 43% 76.3 0.0
29 23:15 SE 6 16.09 Fair CLR 10 -2 43% 76.3 0.0
29 22:55 SE 7 16.09 Fair CLR 10 -2 43% 9 76.3 0.0
29 22:35 Calm 16.09 Fair CLR 11 -2 41% 76.3 0.0
29 22:15 Calm 16.09 Fair CLR 11 -2 41% 76.3 0.0
29 21:55 E 7 16.09 Partly Cloudy SCT075 SCT090 12 -2 38% 76.3 0.0
29 21:35 NE 7 16.09 Overcast BKN075 OVC090 13 -2 36% 76.3 0.0
29 21:15 N 7 16.09 Overcast OVC075 14 -1 36% 76.3 0.0
29 20:55 N 11 16.09 Overcast OVC075 15 -1 34% 76.3 0.0
29 20:30 N 11 16.09 Overcast OVC075 15 0 36% 76.28 0.0
29 20:15 N 9 16.09 Overcast OVC075 15 1 39% 76.28 0.0
29 19:55 N 11 16.09 Overcast OVC075 16 1 36% 76.25 0.0
29 19:40 N 9 16.09 Overcast OVC075 16 1 36% 76.25 0.0
29 19:15 N 15 16.09 Overcast OVC075 16 1 36% 76.2 0.0
29 18:55 N 17 G 26 16.09 Overcast OVC075 16 1 36% 76.2 0.0
29 18:35 N 19 16.09 Overcast BKN075 OVC085 16 1 36% 76.2 0.0
29 18:15 N 19 16.09 Overcast OVC075 17 1 34% 76.2 0.0
29 17:55 N 24 G 35 16.09 Overcast OVC075 17 1 34% 76.17 0.0
29 17:35 N 28 G 35 16.09 Overcast OVC075 17 1 34% 76.17 0.0
29 17:15 N 28 G 37 16.09 Overcast BKN075 OVC085 17 1 34% 76.15 0.0
29 16:55 N 26 G 44 16.09 Mostly Cloudy BKN075 BKN090 18 1 32% 76.12 0.0
29 16:35 N 30 G 43 16.09 Fair CLR 20 1 28% 76.1 0.0
29 16:15 N 33 G 43 16.09 Mostly Cloudy and Breezy SCT090 BKN120 19 2 32% 76.07 0.0
29 15:55 N 33 G 48 16.09 Overcast and Breezy BKN080 OVC110 19 3 35% 76.05 0.0
29 15:35 N 33 G 41 16.09 Overcast and Breezy OVC090 20 3 33% 76.05 0.0
29 15:15 N 26 G 37 16.09 Mostly Cloudy SCT075 BKN090 BKN110 20 3 33% 76.02 0.0
29 14:55 NE 22 G 31 16.09 Partly Cloudy SCT075 SCT100 22 4 31% 76.02 0.0
29 14:35 NE 6 16.09 Fair CLR 23 4 29% 76 0.0
29 14:15 Calm 16.09 Fair CLR 22 3 29% 76.02 0.0
29 13:55 NE 9 16.09 Fair CLR 21 3 31% 76.02 0.0
29 13:35 E 11 16.09 Partly Cloudy SCT095 21 3 31% 76.07 0.0
29 13:15 Calm 16.09 Partly Cloudy SCT095 20 3 33% 76.07 0.0
29 12:55 NE 15 16.09 Overcast OVC095 19 3 35% 76.07 0.0
29 12:35 E 6 16.09 Mostly Cloudy BKN095 19 3 35% 76.07 0.0
29 12:15 NE 9 16.09 Mostly Cloudy BKN095 BKN110 20 3 33% 76.1 0.0
29 11:55 E 9 16.09 Mostly Cloudy BKN095 19 3 35% 76.1 0.0
29 11:35 E 11 16.09 Mostly Cloudy BKN095 19 2 32% 76.12 0.0
29 11:15 E 6 16.09 Mostly Cloudy BKN095 18 2 34% 76.12 0.0
29 10:55 Calm 16.09 Partly Cloudy SCT095 18 3 37% 76.12 0.0
29 10:35 N 6 16.09 Overcast SCT031 SCT055 OVC090 17 3 39% 76.12 0.0
29 10:15 NE 7 16.09 Mostly Cloudy BKN090 17 2 37% 76.1 0.0
29 09:55 Calm 16.09 Mostly Cloudy BKN100 BKN120 17 2 37% 76.12 0.0
29 09:35 N 9 16.09 Mostly Cloudy SCT100 BKN120 17 2 37% 76.1 0.0
29 09:15 N 9 16.09 Mostly Cloudy BKN100 17 2 37% 76.1 0.0
29 08:55 NE 13 16.09 Partly Cloudy SCT110 17 2 37% 76.1 0.0
29 08:35 NE 9 16.09 Fair CLR 17 3 39% 76.1 0.0
29 08:15 Calm 16.09 Partly Cloudy SCT110 15 2 42% 76.12 0.0
29 08:00 Calm 16.09 Mostly Cloudy BKN110 15 2 42% 76.1 0.0
29 07:35 SE 6 16.09 Fair CLR 14 1 41% 76.1 0.0
29 07:15 Calm 16.09 Fair CLR 13 1 44% 76.1 0.0
29 06:55 Calm 16.09 Partly Cloudy SCT075 12 1 47% 76.05 0.0
29 06:35 Calm 16.09 Partly Cloudy SCT075 10 2 58% 76.05 0.0
29 06:15 Calm 16.09 Partly Cloudy SCT075 11 1 50% 76.02 0.0
29 05:55 Calm 16.09 Fair CLR 11 1 50% 76 0.0
29 05:35 E 7 16.09 Fair CLR 11 1 50% 76 0.0
29 05:15 SE 9 16.09 Fair CLR 11 1 50% 75.97 0.0
29 04:55 Calm 16.09 Fair CLR 10 0 50% 76 0.0
29 04:35 SE 6 16.09 Fair CLR 10 0 50% 76 0.0
29 04:15 Calm 16.09 Fair CLR 11 1 50% 76.02 0.0
29 03:55 S 6 16.09 Fair CLR 11 0 47% 76.02 0.0
29 03:35 Calm 16.09 Fair CLR 11 1 50% 76.02 0.0
29 03:15 E 6 16.09 Fair CLR 12 0 44% 76 0.0
29 02:55 Calm 16.09 Fair CLR 12 1 47% 76.02 0.0
29 02:35 Calm 16.09 Fair CLR 13 0 41% 76.02 0.0
29 02:15 SE 6 16.09 Fair CLR 13 1 44% 76.02 0.0
29 01:55 Calm 16.09 Fair CLR 13 1 44% 76 0.0
29 01:35 Calm 16.09 Fair CLR 13 1 44% 76.02 0.0
29 01:15 SW 6 16.09 Fair CLR 15 0 36% 76.02 0.0
29 00:55 Calm 16.09 Partly Cloudy SCT120 15 1 39% 76.02 0.0
29 00:35 E 6 16.09 Mostly Cloudy BKN120 16 1 36% 76.02 0.0
29 00:15 SE 7 16.09 Fair CLR 15 1 39% 76.02 0.0
28 23:55 E 6 16.09 Fair CLR 15 1 39% 76.02 0.0
28 23:35 Calm 16.09 Fair CLR 16 3 42% 76.02 0.0
28 23:15 Calm 16.09 Fair CLR 15 3 45% 76.02 0.0
28 22:55 Calm 16.09 Fair CLR 14 3 48% 76.02 0.0
28 22:35 Calm 16.09 Fair CLR 15 2 42% 76 0.0
28 22:15 Calm 16.09 Fair CLR 16 3 42% 76.02 0.0
28 21:55 Calm 16.09 Fair CLR 17 3 39% 76.02 0.0
28 21:35 Calm 16.09 Fair CLR 18 3 37% 76.02 0.0
28 21:15 Calm 16.09 Fair CLR 20 3 33% 76.02 0.0
28 20:55 Calm 16.09 Fair CLR 20 3 33% 76.02 0.0
28 20:35 Calm 16.09 Fair CLR 19 3 35% 76.02 0.0
28 20:15 N 9 16.09 Partly Cloudy SCT110 20 3 33% 76.02 0.0
28 19:55 N 13 16.09 Partly Cloudy SCT110 21 3 31% 76 0.0
28 19:35 N 11 16.09 Fair CLR 21 3 31% 76 0.0
28 19:15 N 13 16.09 Fair CLR 22 3 29% 76 0.0
28 18:55 N 9 16.09 Fair CLR 23 5 31% 76 0.0
28 18:35 NE 13 16.09 Fair CLR 23 4 29% 76 0.0
28 18:15 NE 11 16.09 Fair CLR 24 4 27% 25 76 0.0
28 17:55 NE 13 16.09 Fair CLR 25 4 26% 25 76 0.0
28 17:35 E 15 16.09 Fair CLR 25 4 26% 25 76 0.0
28 17:15 E 13 16.09 Fair CLR 25 4 26% 25 76.02 0.0
28 16:55 E 13 16.09 Fair CLR 26 4 24% 26 76.02 0.0
28 16:35 NE 9 16.09 Fair CLR 25 4 26% 25 76.02 0.0
28 16:15 E 11 16.09 Fair CLR 25 4 26% 25 76.05 0.0
28 15:55 E 11 11.27 Fair CLR 25 5 28% 25 76.07 0.0
28 15:35 E 15 16.09 Fair CLR 25 5 28% 25 76.07 0.0
28 15:15 E 19 11.27 Fair CLR 25 5 28% 25 76.1 0.0
28 14:55 NE 15 11.27 Fair CLR 26 5 26% 26 76.1 0.0
28 14:35 E 11 8.05 Fair CLR 25 5 28% 25 76.12 0.0
28 14:15 NE 17 16.09 Fair CLR 25 5 28% 25 76.12 0.0
28 13:55 E 7 16.09 Fair CLR 25 5 28% 25 76.12 0.0
28 13:35 Calm 16.09 Fair CLR 25 5 28% 25 76.15 0.0
28 13:15 E 7 16.09 Fair CLR 24 5 29% 25 76.17 0.0
28 12:55 NW 9 16.09 Fair CLR 23 5 31% 76.17 0.0
28 12:35 Calm 16.09 Fair CLR 23 5 31% 76.2 0.0
28 12:15 E 6 16.09 Fair CLR 22 5 33% 76.23 0.0
28 11:55 NE 7 16.09 Fair CLR 21 5 35% 76.23 0.0
28 11:35 N 9 16.09 Fair CLR 21 5 35% 76.25 0.0
28 11:15 NE 9 16.09 Fair CLR 20 5 38% 76.25 0.0
28 10:55 NE 9 16.09 Fair CLR 20 5 38% 76.28 0.0
28 10:35 NE 7 16.09 Fair CLR 20 5 38% 76.28 0.0
28 10:15 E 11 16.09 Fair CLR 19 5 40% 76.28 0.0
28 09:55 E 9 16.09 Fair CLR 18 5 43% 76.28 0.0
28 09:35 E 11 16.09 Fair CLR 18 5 43% 76.3 0.0
28 08:55 E 7 16.09 Fair CLR 17 6 49% 76.3 0.0
28 08:35 E 6 16.09 Fair CLR 15 5 51% 76.3 0.0
28 08:15 Calm 16.09 Fair CLR 14 5 55% 76.3 0.0
28 07:55 Calm 16.09 Fair CLR 13 4 55% 76.33 0.0
28 07:35 Calm 16.09 Fair CLR 12 3 54% 76.3 0.0
28 07:15 Calm 11.27 Fair CLR 11 3 58% 76.3 0.0
28 06:55 Calm 16.09 Fair CLR 10 3 62% 76.3 0.0
28 06:35 Calm 16.09 Fair CLR 10 3 62% 76.28 0.0
28 06:15 Calm 16.09 Fair CLR 9 3 66% 76.28 0.0
28 05:55 Calm 16.09 Fair CLR 11 3 58% 76.28 0.0
28 05:35 Calm 16.09 Fair CLR 12 4 58% 76.28 0.0
28 05:15 Calm 16.09 Fair CLR 10 2 58% 76.28 0.0
28 04:55 Calm 16.09 Fair CLR 10 5 71% 76.3 0.0
28 04:35 Calm 16.09 Fair CLR 10 2 58% 76.3 0.0
Date Time (pdt) Wind (kph) Vis. (km) Weather Sky Cond. Air Dwpt Max. Min. Relative Humidity Wind Chill (°C) Heat Index (°C) altimeter (cm) sea level (mb) 1 hr 3 hr 6 hr
6 hour
Temperature (ºC) Pressure Precipitation (cm)